Zlatoust, Russia
Current Conditions -  °F | °C
As of 8:30 PM on Sunday 23 Nov 2014 (Local Time) from USCC Reporting Station
Clear Clear  
Wind Chill: -21°   Ceiling: Unl
Heat Index: -2°   Visibility: 6mi
Dew Point: -13°   Wind: 13mph
Humidity: 60%   Direction: 350°N
Pressure: 30.36"   Gusts: NA
Location:  55.17°N, 59.65°E
Report Text: USCC 231430Z 35006MPS CAVOK M19/M25 Q1028 27000060 NOSIG RMKQFE751
Loading
Personal Weather Stations






























Interactive Weather Map New forecast layout! Learn more

10-Day Weather Forecast

Advertisements
Track Severe Weather on mobile